Time;durP1;ratioP1;P1;durP2;ratioP2;P2;SDS_P1;SDS_P2;PMS_P1;PMS_P2;Temp;Humidity;BMP_temperature;BMP_pressure;BME280_temperature;BME280_humidity;BME280_pressure;Samples;Min_cycle;Max_cycle;Signal;HPM_P1;HPM_P2
2023/01/11 00:00:47;;;;;;;;;2.00;2.00;;;;;20.42;62.44;101218.55;110132;1249;20151;-68
2023/01/11 00:03:18;;;;;;;;;2.00;2.00;;;;;20.42;62.67;101214.78;110117;1250;20888;-68
2023/01/11 00:05:45;;;;;;;;;4.00;2.00;;;;;20.42;62.58;101217.14;110113;1265;18575;-68
2023/01/11 00:08:14;;;;;;;;;2.00;2.00;;;;;20.41;62.39;101216.48;110090;1250;22093;-69
2023/01/11 00:10:41;;;;;;;;;2.00;2.00;;;;;20.41;62.50;101220.67;110118;1264;19334;-69
2023/01/11 00:13:09;;;;;;;;;2.67;2.00;;;;;20.40;62.55;101217.84;110108;1257;18388;-68
2023/01/11 00:15:37;;;;;;;;;2.00;2.00;;;;;20.40;62.46;101220.08;110106;1265;18583;-67
2023/01/11 00:18:04;;;;;;;;;4.00;4.00;;;;;20.40;62.55;101221.31;110075;1250;21688;-67
2023/01/11 00:20:32;;;;;;;;;3.00;2.00;;;;;20.39;62.62;101218.88;110140;1250;19769;-67
2023/01/11 00:23:00;;;;;;;;;3.00;3.00;;;;;20.38;62.50;101218.22;109975;1266;18629;-68
2023/01/11 00:25:27;;;;;;;;;5.00;4.00;;;;;20.37;62.59;101214.52;110076;1250;20922;-68
2023/01/11 00:27:55;;;;;;;;;2.00;2.00;;;;;20.38;62.36;101207.20;109987;1265;18424;-68
2023/01/11 00:30:23;;;;;;;;;2.00;2.00;;;;;20.39;62.62;101208.56;109918;1253;20152;-67
2023/01/11 00:32:51;;;;;;;;;2.00;2.00;;;;;20.38;62.40;101205.39;110083;1250;20784;-68
2023/01/11 00:35:18;;;;;;;;;4.00;4.00;;;;;20.38;62.26;101210.61;110023;1265;18729;-69
2023/01/11 00:37:45;;;;;;;;;3.00;2.00;;;;;20.38;62.39;101206.08;110097;1250;23125;-68
2023/01/11 00:40:13;;;;;;;;;4.00;4.00;;;;;20.37;62.41;101212.51;110061;1264;19398;-67
2023/01/11 00:48:12;;;;;;;;;2.00;2.00;;;;;20.37;62.39;101208.97;110081;1249;20870;-68
2023/01/11 00:50:39;;;;;;;;;2.00;2.00;;;;;20.37;62.38;101211.45;110091;1260;18527;-67
2023/01/11 00:53:07;;;;;;;;;4.00;4.00;;;;;20.36;62.27;101211.73;110076;1250;22538;-69
2023/01/11 00:55:35;;;;;;;;;1.00;1.00;;;;;20.37;62.36;101217.64;110111;1250;21866;-67
2023/01/11 00:58:02;;;;;;;;;2.00;2.00;;;;;20.37;62.40;101218.90;110101;1265;18580;-67
2023/01/11 01:00:30;;;;;;;;;2.00;2.00;;;;;20.37;62.14;101217.95;110102;1249;21796;-67
2023/01/11 01:02:58;;;;;;;;;4.00;2.00;;;;;20.35;62.32;101215.27;110123;1265;20927;-67
2023/01/11 01:05:26;;;;;;;;;3.00;2.00;;;;;20.36;62.15;101220.65;110104;1250;22717;-68
2023/01/11 01:07:53;;;;;;;;;2.00;2.00;;;;;20.36;62.28;101217.03;109989;1266;18710;-68
2023/01/11 01:10:21;;;;;;;;;2.00;2.00;;;;;20.36;62.19;101218.98;110057;1259;19423;-68
2023/01/11 01:15:34;;;;;;;;;4.00;4.00;;;;;20.35;62.27;101220.54;110095;1261;18659;-68
2023/01/11 01:18:01;;;;;;;;;4.00;4.00;;;;;20.36;62.11;101222.52;110096;1265;19384;-69
2023/01/11 01:20:28;;;;;;;;;4.00;4.00;;;;;20.36;62.11;101223.95;110080;1263;20078;-68
2023/01/11 01:22:57;;;;;;;;;4.00;2.00;;;;;20.36;62.04;101221.52;110154;1249;20076;-69
2023/01/11 01:25:24;;;;;;;;;2.00;2.00;;;;;20.35;62.12;101221.83;110101;1250;20801;-66
2023/01/11 01:27:52;;;;;;;;;2.00;2.00;;;;;20.35;62.09;101218.23;110071;1265;18425;-68
2023/01/11 01:30:19;;;;;;;;;4.00;4.00;;;;;20.35;61.99;101212.98;110100;1264;20086;-68
2023/01/11 01:32:47;;;;;;;;;2.00;2.00;;;;;20.34;62.20;101213.81;109914;1253;21002;-68
2023/01/11 01:35:14;;;;;;;;;1.00;1.00;;;;;20.35;61.95;101215.33;110074;1265;22650;-68
2023/01/11 01:37:42;;;;;;;;;2.00;2.00;;;;;20.34;62.22;101208.83;110136;1250;20019;-68
2023/01/11 01:40:09;;;;;;;;;4.00;4.00;;;;;20.34;62.17;101207.41;110032;1250;20745;-66
2023/01/11 01:42:38;;;;;;;;;4.00;4.00;;;;;20.33;61.95;101204.30;110265;1250;19630;-66
2023/01/11 01:45:06;;;;;;;;;2.00;2.00;;;;;20.33;61.93;101208.06;110079;1265;18690;-68
2023/01/11 01:47:33;;;;;;;;;4.00;2.00;;;;;20.33;62.06;101206.08;110107;1265;22330;-67
2023/01/11 01:50:00;;;;;;;;;2.00;2.00;;;;;20.33;62.05;101210.95;110109;1250;18334;-68
2023/01/11 01:52:28;;;;;;;;;4.00;3.00;;;;;20.33;61.84;101209.70;109964;1253;20044;-67
2023/01/11 01:54:56;;;;;;;;;2.00;2.00;;;;;20.33;61.97;101201.21;109915;1253;21130;-69
2023/01/11 01:57:24;;;;;;;;;4.00;4.00;;;;;20.33;62.19;101191.72;110050;1250;20353;-67
2023/01/11 01:59:52;;;;;;;;;2.00;2.00;;;;;20.33;61.85;101189.23;110114;1250;20084;-67
2023/01/11 02:02:19;;;;;;;;;2.00;2.00;;;;;20.33;62.02;101192.80;110051;1250;22268;-67
2023/01/11 02:04:46;;;;;;;;;2.00;2.00;;;;;20.32;62.05;101193.08;110137;1250;20485;-68
2023/01/11 02:07:14;;;;;;;;;2.00;2.00;;;;;20.33;61.92;101191.55;110010;1257;18799;-67
2023/01/11 02:09:41;;;;;;;;;2.00;2.00;;;;;20.32;61.79;101193.29;109922;1266;19816;-68
2023/01/11 02:12:10;;;;;;;;;2.00;2.00;;;;;20.32;61.80;101190.59;110064;1250;19733;-67
2023/01/11 02:14:37;;;;;;;;;2.00;2.00;;;;;20.31;61.80;101189.47;110098;1265;20805;-68
2023/01/11 02:17:06;;;;;;;;;2.00;2.00;;;;;20.32;61.83;101189.81;110128;1249;20726;-70
2023/01/11 02:19:33;;;;;;;;;2.67;1.67;;;;;20.33;61.75;101190.46;110124;1251;19666;-67
2023/01/11 02:22:00;;;;;;;;;2.00;2.00;;;;;20.33;61.74;101188.69;110074;1265;18628;-68
2023/01/11 02:24:28;;;;;;;;;2.00;2.00;;;;;20.31;61.95;101190.29;110085;1250;22056;-67
2023/01/11 02:26:57;;;;;;;;;1.00;1.00;;;;;20.32;61.77;101191.89;110097;1257;28666;-67
2023/01/11 02:29:25;;;;;;;;;2.00;2.00;;;;;20.32;61.90;101192.98;110094;1250;22440;-67
2023/01/11 02:31:53;;;;;;;;;2.00;2.00;;;;;20.31;61.78;101188.35;110123;1250;20831;-67
2023/01/11 02:34:20;;;;;;;;;4.00;2.00;;;;;20.31;61.95;101187.46;110074;1250;19593;-67
2023/01/11 02:36:48;;;;;;;;;5.00;2.00;;;;;20.31;61.55;101180.18;110090;1251;22124;-67
2023/01/11 02:39:16;;;;;;;;;2.00;2.00;;;;;20.31;61.74;101172.05;110115;1250;19575;-67
2023/01/11 02:47:19;;;;;;;;;4.00;4.00;;;;;20.30;61.66;101168.52;109828;1251;22342;-68
2023/01/11 02:49:46;;;;;;;;;4.00;4.00;;;;;20.30;61.66;101167.23;110105;1265;18524;-67
2023/01/11 02:52:16;;;;;;;;;4.00;2.00;;;;;20.29;61.66;101166.80;110052;1250;18704;-67
2023/01/11 02:54:44;;;;;;;;;2.00;2.00;;;;;20.29;61.88;101164.02;110108;1250;21483;-68
2023/01/11 02:57:11;;;;;;;;;3.00;3.00;;;;;20.29;61.45;101162.73;110132;1250;18478;-68
2023/01/11 02:59:39;;;;;;;;;4.00;2.00;;;;;20.28;61.65;101161.57;110081;1257;18682;-67
2023/01/11 03:02:07;;;;;;;;;2.00;2.00;;;;;20.30;61.62;101164.70;110109;1265;19425;-67
2023/01/11 03:04:35;;;;;;;;;4.00;4.00;;;;;20.29;61.70;101162.39;110063;1250;22865;-68
2023/01/11 03:07:02;;;;;;;;;2.00;2.00;;;;;20.30;61.66;101159.98;110059;1251;20439;-67
2023/01/11 03:09:29;;;;;;;;;2.00;2.00;;;;;20.29;61.69;101157.31;110112;1250;19546;-67
2023/01/11 03:14:43;;;;;;;;;2.00;2.00;;;;;20.28;61.64;101157.08;110032;1265;18630;-68
2023/01/11 03:17:11;;;;;;;;;2.00;2.00;;;;;20.29;61.62;101151.20;110038;1265;19670;-68
2023/01/11 03:19:39;;;;;;;;;1.67;1.00;;;;;20.28;61.61;101151.25;110080;1264;18539;-67
2023/01/11 03:22:07;;;;;;;;;4.00;2.00;;;;;20.29;61.60;101146.66;109870;1266;21970;-66
2023/01/11 03:24:35;;;;;;;;;2.00;2.00;;;;;20.28;61.67;101146.74;110048;1265;19714;-68
2023/01/11 03:27:03;;;;;;;;;2.00;2.00;;;;;20.28;61.57;101149.45;110094;1265;20683;-68
2023/01/11 03:29:30;;;;;;;;;2.00;2.00;;;;;20.29;61.71;101149.15;109876;1265;19034;-67
2023/01/11 03:31:58;;;;;;;;;2.00;2.00;;;;;20.27;61.56;101146.05;110077;1250;22017;-67
2023/01/11 03:34:25;;;;;;;;;2.00;2.00;;;;;20.28;61.54;101145.29;110093;1256;22886;-68
2023/01/11 03:36:53;;;;;;;;;2.00;2.00;;;;;20.27;61.72;101144.95;109905;1266;19991;-67
2023/01/11 03:39:20;;;;;;;;;3.00;2.00;;;;;20.28;61.53;101145.40;110164;1265;19292;-66
2023/01/11 03:41:48;;;;;;;;;1.00;1.00;;;;;20.27;61.64;101142.77;110090;1264;19543;-67
2023/01/11 03:44:16;;;;;;;;;1.50;1.50;;;;;20.28;61.61;101142.55;110062;1263;18900;-67
2023/01/11 03:46:43;;;;;;;;;2.00;2.00;;;;;20.27;61.68;101140.96;110055;1265;19407;-67
2023/01/11 03:49:10;;;;;;;;;2.00;2.00;;;;;20.27;61.53;101138.66;110059;1265;20053;-66
2023/01/11 03:51:38;;;;;;;;;2.00;2.00;;;;;20.26;61.50;101131.70;110072;1249;19003;-67
2023/01/11 03:54:05;;;;;;;;;2.00;2.00;;;;;20.26;61.59;101125.69;110114;1265;22699;-68
2023/01/11 03:56:33;;;;;;;;;2.00;2.00;;;;;20.26;61.35;101125.71;110056;1265;22755;-67
2023/01/11 03:59:01;;;;;;;;;3.33;2.00;;;;;20.25;61.46;101123.77;110041;1256;18677;-66
2023/01/11 04:01:29;;;;;;;;;2.00;2.00;;;;;20.26;61.48;101120.65;110052;1265;19776;-67
2023/01/11 04:03:57;;;;;;;;;2.00;2.00;;;;;20.25;61.41;101116.67;110103;1265;18443;-66
2023/01/11 04:06:24;;;;;;;;;2.00;2.00;;;;;20.26;61.57;101119.90;110126;1265;18633;-68
2023/01/11 04:08:52;;;;;;;;;2.00;2.00;;;;;20.26;61.53;101116.61;110083;1250;20793;-67
2023/01/11 04:11:20;;;;;;;;;2.00;1.00;;;;;20.25;61.41;101112.68;110003;1256;18545;-66
2023/01/11 04:13:48;;;;;;;;;4.00;2.00;;;;;20.25;61.49;101110.88;110049;1250;18700;-68
2023/01/11 04:16:16;;;;;;;;;2.00;2.00;;;;;20.25;61.44;101106.94;110133;1252;19621;-66
2023/01/11 04:18:43;;;;;;;;;2.00;2.00;;;;;20.26;61.53;101102.88;110004;1265;18384;-66
2023/01/11 04:21:11;;;;;;;;;2.00;2.00;;;;;20.25;61.42;101102.95;110075;1264;18653;-67
2023/01/11 04:23:39;;;;;;;;;2.00;2.00;;;;;20.24;61.43;101097.38;110033;1265;19456;-67
2023/01/11 04:26:06;;;;;;;;;2.00;2.00;;;;;20.24;61.53;101095.40;110034;1257;18352;-67
2023/01/11 04:28:34;;;;;;;;;4.00;2.00;;;;;20.25;61.28;101096.80;110030;1250;21342;-68
2023/01/11 04:31:02;;;;;;;;;1.00;1.00;;;;;20.25;61.38;101095.50;110118;1250;19379;-67
2023/01/11 04:33:30;;;;;;;;;1.50;1.50;;;;;20.23;61.28;101091.33;110090;1259;18649;-67
2023/01/11 04:35:57;;;;;;;;;2.00;2.00;;;;;20.25;61.33;101085.73;110064;1265;19427;-68
2023/01/11 04:38:26;;;;;;;;;1.00;1.00;;;;;20.24;61.37;101083.05;110065;1264;19577;-69
2023/01/11 04:42:17;;;;;;;;;1.00;1.00;;;;;20.24;61.49;101082.38;110050;1259;20060;-67
2023/01/11 04:43:42;;;;;;;;;2.00;2.00;;;;;20.24;61.22;101076.05;109924;1251;20296;-66
2023/01/11 04:46:10;;;;;;;;;4.00;2.00;;;;;20.25;61.33;101075.91;110001;1249;19478;-67
2023/01/11 04:48:39;;;;;;;;;2.00;2.00;;;;;20.24;61.51;101071.23;110117;1264;18389;-67
2023/01/11 04:51:06;;;;;;;;;2.00;2.00;;;;;20.25;61.40;101069.58;110136;1265;18702;-68
2023/01/11 04:53:34;;;;;;;;;4.00;2.00;;;;;20.24;61.25;101062.70;110099;1256;19784;-68
2023/01/11 04:56:02;;;;;;;;;2.00;2.00;;;;;20.25;61.12;101063.38;110062;1264;18604;-67
2023/01/11 04:58:29;;;;;;;;;2.00;2.00;;;;;20.24;61.24;101061.48;110055;1265;18899;-67
2023/01/11 05:00:57;;;;;;;;;3.00;3.00;;;;;20.24;61.38;101062.09;110116;1254;19418;-68
2023/01/11 05:03:24;;;;;;;;;2.00;2.00;;;;;20.23;61.13;101057.93;110111;1257;21583;-67
2023/01/11 05:05:53;;;;;;;;;5.00;2.00;;;;;20.23;61.22;101056.64;109918;1266;18884;-68
2023/01/11 05:08:21;;;;;;;;;4.00;2.00;;;;;20.23;61.30;101051.52;110093;1257;19846;-68
2023/01/11 05:10:49;;;;;;;;;4.00;4.00;;;;;20.23;61.32;101045.32;110100;1264;21521;-67
2023/01/11 05:13:16;;;;;;;;;2.00;2.00;;;;;20.23;61.30;101044.03;110090;1264;18719;-68
2023/01/11 05:15:44;;;;;;;;;2.00;2.00;;;;;20.22;61.11;101042.67;110094;1264;20603;-68
2023/01/11 05:18:12;;;;;;;;;4.00;2.00;;;;;20.23;61.08;101042.42;110120;1265;19875;-68
2023/01/11 05:20:39;;;;;;;;;2.00;2.00;;;;;20.23;61.29;101040.21;110090;1258;18636;-67
2023/01/11 05:23:07;;;;;;;;;1.67;1.00;;;;;20.22;61.29;101035.59;110054;1264;19786;-67
2023/01/11 05:25:34;;;;;;;;;4.00;2.00;;;;;20.22;61.03;101034.81;110028;1264;22954;-67
2023/01/11 05:28:02;;;;;;;;;4.00;4.00;;;;;20.22;61.18;101036.89;110103;1250;18838;-67
2023/01/11 05:30:29;;;;;;;;;4.00;2.00;;;;;20.22;61.10;101037.80;110109;1251;20931;-69
2023/01/11 05:32:57;;;;;;;;;2.00;2.00;;;;;20.22;61.01;101038.84;110136;1265;22900;-67
2023/01/11 05:35:25;;;;;;;;;2.00;2.00;;;;;20.21;61.20;101041.09;110111;1265;19991;-67
2023/01/11 05:37:53;;;;;;;;;4.00;4.00;;;;;20.21;61.16;101035.91;110137;1250;21100;-65
2023/01/11 05:40:20;;;;;;;;;4.00;2.67;;;;;20.21;61.03;101033.16;110160;1257;20395;-66
2023/01/11 05:42:47;;;;;;;;;5.00;4.00;;;;;20.21;60.92;101026.11;110172;1250;19916;-67
2023/01/11 05:45:32;;;;;;;;;2.00;2.00;;;;;20.20;61.03;101022.23;109865;1259;22797;-66
2023/01/11 05:47:59;;;;;;;;;4.00;4.00;;;;;20.21;61.22;101020.27;110109;1250;22786;-66
2023/01/11 05:50:27;;;;;;;;;2.00;2.00;;;;;20.26;61.19;101019.55;110075;1265;20371;-66
2023/01/11 05:52:54;;;;;;;;;5.00;4.00;;;;;20.27;61.05;101020.48;110033;1265;19723;-67
2023/01/11 05:55:22;;;;;;;;;74.50;60.00;;;;;20.30;61.41;101011.68;109832;1265;269277;-68
2023/01/11 05:57:49;;;;;;;;;97.00;72.50;;;;;20.33;61.78;101012.05;110062;1265;18765;-67
2023/01/11 06:00:17;;;;;;;;;88.00;68.00;;;;;20.35;62.13;101008.28;110149;1250;22010;-67
2023/01/11 06:02:45;;;;;;;;;70.00;53.33;;;;;20.35;62.51;101006.02;110052;1250;18572;-67
2023/01/11 06:05:12;;;;;;;;;68.00;53.00;;;;;20.34;62.89;101004.36;110069;1265;18716;-68
2023/01/11 06:07:40;;;;;;;;;55.00;47.00;;;;;20.32;62.71;101007.70;110050;1265;19379;-68
2023/01/11 06:10:07;;;;;;;;;47.00;40.00;;;;;20.33;62.89;101010.11;110064;1249;19999;-68
2023/01/11 06:12:35;;;;;;;;;40.50;33.00;;;;;20.33;62.69;101002.77;110090;1265;20237;-68
2023/01/11 06:15:02;;;;;;;;;35.33;33.00;;;;;20.34;62.66;100999.23;110102;1265;19669;-67
2023/01/11 06:17:30;;;;;;;;;30.50;27.00;;;;;20.34;62.81;101000.33;110078;1265;18633;-67
2023/01/11 06:19:57;;;;;;;;;28.00;23.00;;;;;20.35;62.73;100999.51;110072;1265;20484;-67
2023/01/11 06:22:25;;;;;;;;;25.00;23.00;;;;;20.37;62.51;100999.64;110069;1250;20785;-68
2023/01/11 06:24:52;;;;;;;;;25.50;21.50;;;;;20.35;62.47;101000.23;110006;1256;18581;-68
2023/01/11 06:27:20;;;;;;;;;19.00;19.00;;;;;20.35;62.50;101004.20;109975;1265;18899;-69
2023/01/11 06:29:47;;;;;;;;;21.00;18.00;;;;;20.34;62.24;100997.80;110011;1250;20835;-68
2023/01/11 06:32:15;;;;;;;;;20.00;20.00;;;;;20.35;62.41;100995.87;110091;1257;22265;-67
2023/01/11 06:34:46;;;;;;;;;17.00;17.00;;;;;20.35;62.12;100993.86;110110;1265;20117;-67
2023/01/11 06:37:14;;;;;;;;;17.67;16.33;;;;;20.36;62.08;100992.33;110091;1250;21161;-68
2023/01/11 06:39:42;;;;;;;;;15.00;14.00;;;;;20.36;61.84;100985.25;109944;1250;20046;-68
2023/01/11 06:42:09;;;;;;;;;15.50;12.00;;;;;20.34;61.92;100982.35;110099;1251;20342;-69
2023/01/11 06:44:37;;;;;;;;;13.50;13.50;;;;;20.34;61.92;100981.27;110093;1265;22590;-69
2023/01/11 06:47:04;;;;;;;;;14.50;14.00;;;;;20.33;61.76;100980.14;110085;1259;18634;-69
2023/01/11 06:49:32;;;;;;;;;14.00;12.00;;;;;20.32;61.82;100985.80;109965;1250;19117;-68
2023/01/11 06:52:01;;;;;;;;;17.50;14.00;;;;;20.35;61.89;100980.66;110083;1265;20386;-69
2023/01/11 06:54:29;;;;;;;;;14.00;12.00;;;;;20.37;61.45;100986.98;110077;1257;18606;-70
2023/01/11 06:56:57;;;;;;;;;8.67;8.67;;;;;20.37;61.55;100985.93;110079;1264;18621;-68
2023/01/11 06:59:25;;;;;;;;;14.50;12.00;;;;;20.34;61.46;100983.67;109901;1251;22166;-69
2023/01/11 07:01:53;;;;;;;;;10.00;8.00;;;;;20.31;61.58;100976.90;110065;1251;19622;-69
2023/01/11 07:04:21;;;;;;;;;11.00;11.00;;;;;20.31;61.58;100977.83;110120;1265;21686;-68
2023/01/11 07:06:53;;;;;;;;;10.50;10.50;;;;;20.33;61.70;100968.94;110073;1265;19388;-68
2023/01/11 07:09:21;;;;;;;;;12.00;10.50;;;;;20.33;61.83;100967.39;110101;1250;18655;-69
2023/01/11 07:11:48;;;;;;;;;8.00;8.00;;;;;20.34;61.61;100964.39;110028;1265;18916;-68
2023/01/11 07:14:18;;;;;;;;;5.00;5.00;;;;;20.34;61.55;100962.81;109873;1265;21903;-68
2023/01/11 07:16:46;;;;;;;;;7.00;7.00;;;;;20.35;61.75;100963.95;110105;1250;20116;-67
2023/01/11 07:19:14;;;;;;;;;8.67;8.67;;;;;20.35;61.48;100963.45;110079;1258;18664;-68
2023/01/11 07:21:42;;;;;;;;;8.00;7.67;;;;;20.35;61.69;100966.88;110053;1256;19602;-69
2023/01/11 07:24:11;;;;;;;;;7.50;7.00;;;;;20.35;61.67;100969.88;110113;1265;18510;-69
2023/01/11 07:26:40;;;;;;;;;10.00;8.00;;;;;20.36;61.47;100966.16;109892;1264;18723;-68
2023/01/11 07:29:08;;;;;;;;;7.50;7.00;;;;;20.36;61.60;100959.52;110074;1256;20966;-68
2023/01/11 07:31:40;;;;;;;;;8.00;8.00;;;;;20.36;61.59;100957.69;110091;1250;18604;-68
2023/01/11 07:34:09;;;;;;;;;8.00;8.00;;;;;20.36;61.80;100959.52;110080;1265;19036;-68
2023/01/11 07:36:38;;;;;;;;;9.00;7.50;;;;;20.37;61.80;100959.25;110088;1250;20842;-69
2023/01/11 07:39:06;;;;;;;;;8.00;7.00;;;;;20.38;61.92;100967.98;110157;1251;20071;-69
2023/01/11 07:44:21;;;;;;;;;7.00;5.00;;;;;20.38;61.65;100960.16;110101;1250;21927;-69
2023/01/11 07:46:50;;;;;;;;;8.00;7.00;;;;;20.38;61.59;100959.11;110080;1265;18335;-67
2023/01/11 07:49:18;;;;;;;;;7.00;7.00;;;;;20.38;61.55;100958.32;110089;1265;18698;-69
2023/01/11 07:51:46;;;;;;;;;5.67;5.00;;;;;20.40;61.50;100957.76;110174;1249;22408;-69
2023/01/11 07:54:14;;;;;;;;;5.00;5.00;;;;;20.45;61.98;100959.62;110152;1256;18447;-68
2023/01/11 07:56:42;;;;;;;;;4.00;4.00;;;;;20.48;62.60;100956.54;110048;1256;18896;-69
2023/01/11 07:59:11;;;;;;;;;5.00;5.00;;;;;20.48;62.79;100958.67;110072;1265;21491;-70
2023/01/11 08:01:38;;;;;;;;;7.33;7.33;;;;;20.48;62.96;100956.20;110035;1264;18592;-69
2023/01/11 08:04:10;;;;;;;;;5.00;4.00;;;;;20.45;62.92;100946.81;109894;1265;18851;-69
2023/01/11 08:06:39;;;;;;;;;6.00;6.00;;;;;20.45;62.88;100949.20;110082;1265;19356;-69
2023/01/11 08:09:07;;;;;;;;;3.00;3.00;;;;;20.43;63.21;100948.53;110010;1265;18318;-69
2023/01/11 08:14:41;;;;;;;;;4.00;4.00;;;;;20.40;62.98;100943.98;110018;1251;19354;-70
2023/01/11 08:17:09;;;;;;;;;5.00;4.00;;;;;20.39;62.81;100944.41;110027;1250;18524;-68
2023/01/11 08:19:36;;;;;;;;;4.50;4.50;;;;;20.38;62.77;100942.41;109989;1265;18814;-69
2023/01/11 08:22:06;;;;;;;;;7.00;5.00;;;;;20.38;62.62;100944.14;110109;1264;19748;-67
2023/01/11 08:24:34;;;;;;;;;8.00;7.50;;;;;20.40;62.58;100944.55;110054;1265;18389;-70
2023/01/11 08:27:02;;;;;;;;;7.00;4.00;;;;;20.43;62.36;100951.40;110043;1265;18631;-69
2023/01/11 08:29:30;;;;;;;;;7.00;5.00;;;;;20.46;62.20;100952.38;109891;1265;19504;-69
2023/01/11 08:31:59;;;;;;;;;4.00;4.00;;;;;20.49;62.00;100955.71;109976;1251;19780;-69
2023/01/11 08:34:27;;;;;;;;;4.00;4.00;;;;;20.50;61.89;100953.22;109934;1253;20234;-70
2023/01/11 08:36:56;;;;;;;;;8.00;7.00;;;;;20.52;61.99;100953.30;110004;1256;19835;-69
2023/01/11 08:39:27;;;;;;;;;5.00;5.00;;;;;20.53;61.92;100954.73;110148;1250;22123;-68
2023/01/11 08:41:55;;;;;;;;;5.33;4.67;;;;;20.53;61.61;100947.95;110141;1265;20294;-69
2023/01/11 08:44:24;;;;;;;;;7.00;5.00;;;;;20.51;61.46;100950.94;110084;1265;20966;-68
2023/01/11 08:47:07;;;;;;;;;8.00;5.00;;;;;20.54;61.63;100959.29;110028;1265;22814;-69
2023/01/11 08:49:34;;;;;;;;;4.00;4.00;;;;;20.58;61.53;100962.04;110033;1250;19206;-70
2023/01/11 08:52:03;;;;;;;;;4.00;4.00;;;;;20.58;61.58;100962.76;110061;1265;20963;-67
2023/01/11 08:54:30;;;;;;;;;8.00;7.00;;;;;20.57;61.49;100960.86;110080;1265;18396;-69
2023/01/11 08:56:58;;;;;;;;;5.00;4.67;;;;;20.56;61.10;100955.27;110046;1253;20328;-69
2023/01/11 08:59:26;;;;;;;;;7.00;5.00;;;;;20.60;60.76;100959.06;110040;1250;20958;-70
2023/01/11 09:01:53;;;;;;;;;5.00;5.00;;;;;20.62;60.92;100958.13;110034;1259;18508;-70
2023/01/11 09:04:22;;;;;;;;;5.00;5.00;;;;;20.61;61.00;100957.27;110044;1265;18923;-70
2023/01/11 09:06:50;;;;;;;;;4.00;4.00;;;;;20.61;60.99;100960.34;110035;1250;20854;-70
2023/01/11 09:09:18;;;;;;;;;5.00;4.00;;;;;20.63;60.96;100955.98;110003;1250;18900;-69
2023/01/11 09:11:55;;;;;;;;;8.00;5.00;;;;;20.63;60.99;100955.58;110061;1250;20062;-67
2023/01/11 09:14:22;;;;;;;;;8.00;7.00;;;;;20.64;60.85;100954.25;110078;1249;20790;-67
2023/01/11 09:16:51;;;;;;;;;8.00;7.00;;;;;20.64;60.71;100951.66;110031;1256;18684;-66
2023/01/11 09:19:19;;;;;;;;;10.00;5.00;;;;;20.65;60.79;100947.59;110079;1249;20932;-66
2023/01/11 09:21:48;;;;;;;;;8.00;7.00;;;;;20.64;60.60;100949.12;110022;1265;19438;-69
2023/01/11 09:24:18;;;;;;;;;5.00;5.00;;;;;20.67;60.55;100946.27;110198;1251;21293;-70
2023/01/11 09:26:46;;;;;;;;;7.00;4.00;;;;;20.68;60.49;100941.20;110072;1250;18777;-67
2023/01/11 09:29:14;;;;;;;;;8.00;7.00;;;;;20.66;60.51;100938.05;110025;1256;22615;-66
2023/01/11 09:31:42;;;;;;;;;5.00;5.00;;;;;20.65;60.51;100934.67;110043;1265;18667;-66
2023/01/11 09:34:11;;;;;;;;;8.00;7.00;;;;;20.66;60.11;100934.95;110085;1265;20480;-69
2023/01/11 09:36:40;;;;;;;;;7.67;7.00;;;;;20.68;59.79;100935.11;109895;1251;22181;-67
2023/01/11 09:39:10;;;;;;;;;8.00;7.00;;;;;20.69;59.56;100932.02;110030;1265;22700;-67
2023/01/11 09:41:38;;;;;;;;;8.00;8.00;;;;;20.68;59.36;100928.88;110047;1265;18842;-69
2023/01/11 09:44:13;;;;;;;;;11.00;8.00;;;;;20.67;59.19;100927.17;110075;1251;20921;-67
2023/01/11 09:46:42;;;;;;;;;11.00;10.00;;;;;20.64;59.01;100922.49;110191;1265;19608;-67
2023/01/11 09:49:11;;;;;;;;;8.00;8.00;;;;;20.59;58.83;100918.81;110025;1251;22543;-67
2023/01/11 09:51:40;;;;;;;;;12.00;10.00;;;;;20.55;58.66;100912.05;110165;1250;20626;-66
2023/01/11 09:54:10;;;;;;;;;12.00;11.00;;;;;20.52;58.30;100897.27;109990;1266;18510;-66
2023/01/11 09:56:38;;;;;;;;;9.33;8.67;;;;;20.50;57.76;100897.16;110183;1264;18875;-67
2023/01/11 09:59:06;;;;;;;;;14.67;14.00;;;;;20.49;57.46;100889.11;110139;1264;19494;-69
2023/01/11 10:01:37;;;;;;;;;15.00;12.00;;;;;20.48;57.43;100891.77;110127;1259;18407;-68
2023/01/11 10:04:08;;;;;;;;;14.00;12.00;;;;;20.46;57.12;100885.37;110083;1265;19135;-68
2023/01/11 10:06:36;;;;;;;;;19.00;17.50;;;;;20.45;56.58;100884.61;110100;1265;19525;-74
2023/01/11 10:09:04;;;;;;;;;14.67;14.00;;;;;20.44;55.93;100879.79;110093;1266;18588;-69
2023/01/11 10:11:32;;;;;;;;;23.00;18.00;;;;;20.24;53.96;100880.74;110048;1265;18955;-68
2023/01/11 10:14:02;;;;;;;;;21.00;20.00;;;;;19.86;49.72;100877.86;110024;1251;20860;-67
2023/01/11 10:16:31;;;;;;;;;20.00;17.00;;;;;19.60;46.32;100869.67;110114;1250;20209;-68
2023/01/11 10:19:04;;;;;;;;;18.00;16.00;;;;;19.47;45.38;100862.48;110058;1265;20370;-68
2023/01/11 10:21:32;;;;;;;;;12.00;11.00;;;;;19.66;46.02;100855.98;110028;1265;19543;-70
2023/01/11 10:24:01;;;;;;;;;16.50;11.00;;;;;19.77;46.39;100857.34;110075;1250;20143;-69
2023/01/11 10:26:31;;;;;;;;;15.00;13.00;;;;;19.87;47.08;100854.57;110104;1265;18730;-67
2023/01/11 10:29:16;;;;;;;;;13.00;10.00;;;;;19.94;47.31;100847.98;110051;1250;20797;-67
2023/01/11 10:32:12;;;;;;;;;14.00;13.00;;;;;19.99;47.95;100847.98;110087;1265;20169;-69
2023/01/11 10:34:58;;;;;;;;;11.00;10.00;;;;;20.03;48.40;100842.81;110602;1265;18957;-70
2023/01/11 10:37:43;;;;;;;;;8.00;7.00;;;;;20.07;48.84;100839.15;110001;1265;22061;-68
2023/01/11 10:40:32;;;;;;;;;10.00;8.00;;;;;20.09;49.38;100831.25;110025;1257;22539;-69
2023/01/11 10:43:02;;;;;;;;;10.50;9.00;;;;;20.13;49.67;100830.16;110104;1257;18574;-67
2023/01/11 10:45:31;;;;;;;;;10.00;10.00;;;;;20.15;50.10;100827.17;110093;1265;22275;-69
2023/01/11 10:48:03;;;;;;;;;10.50;10.00;;;;;20.18;50.25;100828.46;110138;1250;20020;-67
2023/01/11 10:50:35;;;;;;;;;7.00;7.00;;;;;20.19;50.68;100817.05;110046;1250;20210;-68
2023/01/11 10:53:02;;;;;;;;;10.50;8.00;;;;;20.22;50.93;100811.66;110058;1251;21028;-68
2023/01/11 10:55:46;;;;;;;;;7.00;7.00;;;;;20.25;51.51;100806.06;110052;1250;22667;-69
2023/01/11 10:58:15;;;;;;;;;7.33;7.33;;;;;20.27;51.77;100797.84;110156;1250;18925;-66
2023/01/11 11:00:46;;;;;;;;;10.00;10.00;;;;;20.29;52.14;100796.00;110107;1249;22762;-71
2023/01/11 11:03:16;;;;;;;;;10.00;10.00;;;;;20.31;52.38;100800.01;110118;1250;18692;-70
2023/01/11 11:05:46;;;;;;;;;7.00;7.00;;;;;20.33;52.68;100796.89;110128;1265;22451;-69
2023/01/11 11:08:14;;;;;;;;;10.33;10.00;;;;;20.33;53.00;100795.06;110061;1257;19384;-68
2023/01/11 11:10:41;;;;;;;;;11.00;8.00;;;;;20.33;53.42;100793.59;109855;1266;20156;-71
2023/01/11 11:13:13;;;;;;;;;9.00;7.00;;;;;20.33;53.42;100788.84;110147;1265;20150;-68
2023/01/11 11:15:40;;;;;;;;;7.00;7.00;;;;;20.34;53.83;100783.42;110092;1265;19621;-67
2023/01/11 11:18:08;;;;;;;;;10.00;8.00;;;;;20.34;53.74;100779.29;109812;1251;18504;-68
2023/01/11 11:20:37;;;;;;;;;10.00;7.67;;;;;20.34;54.11;100780.71;110053;1249;20107;-71
2023/01/11 11:23:05;;;;;;;;;7.00;7.00;;;;;20.33;54.41;100773.57;110090;1249;19379;-70
2023/01/11 11:25:33;;;;;;;;;7.00;7.00;;;;;20.34;54.36;100762.13;109886;1265;18668;-69
2023/01/11 11:28:01;;;;;;;;;5.00;5.00;;;;;20.34;54.61;100756.79;110057;1265;18632;-72
2023/01/11 11:30:30;;;;;;;;;7.00;5.00;;;;;20.35;54.58;100755.64;110135;1265;19301;-70
2023/01/11 11:32:58;;;;;;;;;7.50;7.00;;;;;20.35;54.48;100750.56;110132;1249;21667;-69
2023/01/11 11:35:26;;;;;;;;;8.00;7.00;;;;;20.35;54.56;100749.42;110065;1265;18678;-68
2023/01/11 11:37:54;;;;;;;;;8.00;7.00;;;;;20.37;54.63;100745.63;109957;1252;21003;-67
2023/01/11 11:40:22;;;;;;;;;7.00;5.00;;;;;20.37;54.58;100744.16;110110;1265;18230;-69
2023/01/11 11:42:50;;;;;;;;;10.00;7.00;;;;;20.39;54.76;100737.37;110146;1256;20303;-68